sensor_id;sensor_type;location;lat;lon;timestamp;temperature;humidity
18884;DHT22;9574;47.282;9.640;2023-06-22T00:01:16;23.40;99.90
18884;DHT22;9574;47.282;9.640;2023-06-22T00:03:43;23.40;99.90
18884;DHT22;9574;47.282;9.640;2023-06-22T00:06:10;23.40;99.90
18884;DHT22;9574;47.282;9.640;2023-06-22T00:08:37;23.40;99.90
18884;DHT22;9574;47.282;9.640;2023-06-22T00:11:04;23.40;99.90
18884;DHT22;9574;47.282;9.640;2023-06-22T00:13:32;23.40;99.90
18884;DHT22;9574;47.282;9.640;2023-06-22T00:15:59;23.40;99.90
18884;DHT22;9574;47.282;9.640;2023-06-22T00:18:26;23.40;99.90
18884;DHT22;9574;47.282;9.640;2023-06-22T00:20:54;23.40;99.90
18884;DHT22;9574;47.282;9.640;2023-06-22T00:23:24;23.30;99.90
18884;DHT22;9574;47.282;9.640;2023-06-22T00:25:51;23.30;99.90
18884;DHT22;9574;47.282;9.640;2023-06-22T00:28:18;23.30;99.90
18884;DHT22;9574;47.282;9.640;2023-06-22T00:30:46;23.30;99.90
18884;DHT22;9574;47.282;9.640;2023-06-22T00:33:14;23.30;99.90
18884;DHT22;9574;47.282;9.640;2023-06-22T00:35:41;23.30;99.90
18884;DHT22;9574;47.282;9.640;2023-06-22T00:38:08;23.40;99.90
18884;DHT22;9574;47.282;9.640;2023-06-22T00:40:35;23.40;99.90
18884;DHT22;9574;47.282;9.640;2023-06-22T00:43:03;23.40;99.90
18884;DHT22;9574;47.282;9.640;2023-06-22T00:45:30;23.40;99.90
18884;DHT22;9574;47.282;9.640;2023-06-22T00:47:59;23.40;99.90
18884;DHT22;9574;47.282;9.640;2023-06-22T00:50:28;23.40;99.90
18884;DHT22;9574;47.282;9.640;2023-06-22T00:53:00;23.40;99.90
18884;DHT22;9574;47.282;9.640;2023-06-22T00:55:33;23.40;99.90
18884;DHT22;9574;47.282;9.640;2023-06-22T00:58:01;23.30;99.90
18884;DHT22;9574;47.282;9.640;2023-06-22T01:00:28;23.50;99.90
18884;DHT22;9574;47.282;9.640;2023-06-22T01:02:55;23.80;99.90
18884;DHT22;9574;47.282;9.640;2023-06-22T01:05:24;23.80;99.90
18884;DHT22;9574;47.282;9.640;2023-06-22T01:08:05;23.80;99.90
18884;DHT22;9574;47.282;9.640;2023-06-22T01:10:38;23.90;99.90
18884;DHT22;9574;47.282;9.640;2023-06-22T01:13:11;23.60;99.90
18884;DHT22;9574;47.282;9.640;2023-06-22T01:15:45;23.40;99.90
18884;DHT22;9574;47.282;9.640;2023-06-22T01:18:16;23.30;99.90
18884;DHT22;9574;47.282;9.640;2023-06-22T01:20:45;23.20;99.90
18884;DHT22;9574;47.282;9.640;2023-06-22T01:23:24;23.20;99.90
18884;DHT22;9574;47.282;9.640;2023-06-22T01:25:59;23.10;99.90
18884;DHT22;9574;47.282;9.640;2023-06-22T01:28:50;23.10;99.90
18884;DHT22;9574;47.282;9.640;2023-06-22T01:31:21;23.10;99.90
18884;DHT22;9574;47.282;9.640;2023-06-22T01:33:52;23.10;99.90
18884;DHT22;9574;47.282;9.640;2023-06-22T01:36:21;23.10;99.90
18884;DHT22;9574;47.282;9.640;2023-06-22T01:38:49;23.10;99.90
18884;DHT22;9574;47.282;9.640;2023-06-22T01:41:17;22.90;99.90
18884;DHT22;9574;47.282;9.640;2023-06-22T01:43:45;22.80;99.90
18884;DHT22;9574;47.282;9.640;2023-06-22T01:46:14;22.90;99.90
18884;DHT22;9574;47.282;9.640;2023-06-22T01:48:41;22.90;99.90
18884;DHT22;9574;47.282;9.640;2023-06-22T01:51:08;23.10;99.90
18884;DHT22;9574;47.282;9.640;2023-06-22T01:53:35;23.30;99.90
18884;DHT22;9574;47.282;9.640;2023-06-22T01:56:02;23.40;99.90
18884;DHT22;9574;47.282;9.640;2023-06-22T01:58:30;23.30;99.90
18884;DHT22;9574;47.282;9.640;2023-06-22T02:01:03;23.20;99.90
18884;DHT22;9574;47.282;9.640;2023-06-22T02:03:35;23.20;99.90
18884;DHT22;9574;47.282;9.640;2023-06-22T02:06:06;23.10;99.90
18884;DHT22;9574;47.282;9.640;2023-06-22T02:08:40;23.00;99.90
18884;DHT22;9574;47.282;9.640;2023-06-22T02:11:09;23.00;99.90
18884;DHT22;9574;47.282;9.640;2023-06-22T02:13:37;23.00;99.90
18884;DHT22;9574;47.282;9.640;2023-06-22T02:16:08;22.90;99.90
18884;DHT22;9574;47.282;9.640;2023-06-22T02:18:37;22.90;99.90
18884;DHT22;9574;47.282;9.640;2023-06-22T02:21:05;22.90;99.90
18884;DHT22;9574;47.282;9.640;2023-06-22T02:23:33;23.00;99.90
18884;DHT22;9574;47.282;9.640;2023-06-22T02:26:01;23.00;99.90
18884;DHT22;9574;47.282;9.640;2023-06-22T02:28:29;23.10;99.90
18884;DHT22;9574;47.282;9.640;2023-06-22T02:30:55;23.40;99.90
18884;DHT22;9574;47.282;9.640;2023-06-22T02:33:22;23.40;99.90
18884;DHT22;9574;47.282;9.640;2023-06-22T02:35:51;23.40;99.90
18884;DHT22;9574;47.282;9.640;2023-06-22T02:38:18;23.30;99.90
18884;DHT22;9574;47.282;9.640;2023-06-22T02:40:46;23.20;99.90
18884;DHT22;9574;47.282;9.640;2023-06-22T02:43:13;23.30;99.90
18884;DHT22;9574;47.282;9.640;2023-06-22T02:45:39;23.40;99.90
18884;DHT22;9574;47.282;9.640;2023-06-22T02:48:06;23.40;99.90
18884;DHT22;9574;47.282;9.640;2023-06-22T02:50:33;23.40;99.90
18884;DHT22;9574;47.282;9.640;2023-06-22T02:53:02;23.30;99.90
18884;DHT22;9574;47.282;9.640;2023-06-22T02:55:29;23.00;99.90
18884;DHT22;9574;47.282;9.640;2023-06-22T02:57:56;22.70;99.90
18884;DHT22;9574;47.282;9.640;2023-06-22T03:00:25;22.60;99.90
18884;DHT22;9574;47.282;9.640;2023-06-22T03:02:56;22.50;99.90
18884;DHT22;9574;47.282;9.640;2023-06-22T03:05:24;22.30;99.90
18884;DHT22;9574;47.282;9.640;2023-06-22T03:07:51;22.10;99.90
18884;DHT22;9574;47.282;9.640;2023-06-22T03:10:20;22.10;99.90
18884;DHT22;9574;47.282;9.640;2023-06-22T03:12:47;22.20;99.90
18884;DHT22;9574;47.282;9.640;2023-06-22T03:15:14;22.10;99.90
18884;DHT22;9574;47.282;9.640;2023-06-22T03:17:42;22.20;99.90
18884;DHT22;9574;47.282;9.640;2023-06-22T03:20:10;22.60;99.90
18884;DHT22;9574;47.282;9.640;2023-06-22T03:22:38;22.70;99.90
18884;DHT22;9574;47.282;9.640;2023-06-22T03:25:05;22.70;99.90
18884;DHT22;9574;47.282;9.640;2023-06-22T03:27:40;22.40;99.90
18884;DHT22;9574;47.282;9.640;2023-06-22T03:30:09;22.60;99.90
18884;DHT22;9574;47.282;9.640;2023-06-22T03:32:36;22.40;99.90
18884;DHT22;9574;47.282;9.640;2023-06-22T03:35:04;22.30;99.90
18884;DHT22;9574;47.282;9.640;2023-06-22T03:37:31;22.10;99.90
18884;DHT22;9574;47.282;9.640;2023-06-22T03:39:58;22.30;99.90
18884;DHT22;9574;47.282;9.640;2023-06-22T03:42:26;22.40;99.90
18884;DHT22;9574;47.282;9.640;2023-06-22T03:44:54;22.20;99.90
18884;DHT22;9574;47.282;9.640;2023-06-22T03:47:22;22.10;99.90
18884;DHT22;9574;47.282;9.640;2023-06-22T03:49:49;22.30;99.90
18884;DHT22;9574;47.282;9.640;2023-06-22T03:52:20;22.30;99.90
18884;DHT22;9574;47.282;9.640;2023-06-22T03:54:47;22.00;99.90
18884;DHT22;9574;47.282;9.640;2023-06-22T03:57:14;22.10;99.90
18884;DHT22;9574;47.282;9.640;2023-06-22T03:59:41;21.90;99.90
18884;DHT22;9574;47.282;9.640;2023-06-22T04:02:10;21.90;99.90
18884;DHT22;9574;47.282;9.640;2023-06-22T04:04:37;21.90;99.90
18884;DHT22;9574;47.282;9.640;2023-06-22T04:07:05;21.90;99.90
18884;DHT22;9574;47.282;9.640;2023-06-22T04:09:32;22.00;99.90
18884;DHT22;9574;47.282;9.640;2023-06-22T04:11:59;21.80;99.90
18884;DHT22;9574;47.282;9.640;2023-06-22T04:14:25;21.60;99.90
18884;DHT22;9574;47.282;9.640;2023-06-22T04:16:52;21.60;99.90
18884;DHT22;9574;47.282;9.640;2023-06-22T04:19:21;21.60;99.90
18884;DHT22;9574;47.282;9.640;2023-06-22T04:21:48;21.90;99.90
18884;DHT22;9574;47.282;9.640;2023-06-22T04:24:15;21.90;99.90
18884;DHT22;9574;47.282;9.640;2023-06-22T04:26:42;21.90;99.90
18884;DHT22;9574;47.282;9.640;2023-06-22T04:29:11;22.20;99.90
18884;DHT22;9574;47.282;9.640;2023-06-22T04:31:38;22.30;99.90
18884;DHT22;9574;47.282;9.640;2023-06-22T04:34:06;22.50;99.90
18884;DHT22;9574;47.282;9.640;2023-06-22T04:36:39;22.40;99.90
18884;DHT22;9574;47.282;9.640;2023-06-22T04:39:07;22.50;99.90
18884;DHT22;9574;47.282;9.640;2023-06-22T04:41:35;22.50;99.90
18884;DHT22;9574;47.282;9.640;2023-06-22T04:44:11;22.70;99.90
18884;DHT22;9574;47.282;9.640;2023-06-22T04:46:39;22.60;99.90
18884;DHT22;9574;47.282;9.640;2023-06-22T04:49:06;22.60;99.90
18884;DHT22;9574;47.282;9.640;2023-06-22T04:51:39;22.70;99.90
18884;DHT22;9574;47.282;9.640;2023-06-22T04:54:06;22.50;99.90
18884;DHT22;9574;47.282;9.640;2023-06-22T04:56:34;22.30;99.90
18884;DHT22;9574;47.282;9.640;2023-06-22T04:59:01;22.20;99.90
18884;DHT22;9574;47.282;9.640;2023-06-22T05:01:28;22.40;99.90
18884;DHT22;9574;47.282;9.640;2023-06-22T05:03:57;22.30;99.90
18884;DHT22;9574;47.282;9.640;2023-06-22T05:06:27;22.40;99.90
18884;DHT22;9574;47.282;9.640;2023-06-22T05:08:56;22.40;99.90
18884;DHT22;9574;47.282;9.640;2023-06-22T05:11:24;22.40;99.90
18884;DHT22;9574;47.282;9.640;2023-06-22T05:13:51;22.50;99.90
18884;DHT22;9574;47.282;9.640;2023-06-22T05:16:18;22.70;99.90
18884;DHT22;9574;47.282;9.640;2023-06-22T05:18:50;22.90;99.90
18884;DHT22;9574;47.282;9.640;2023-06-22T05:21:17;23.00;99.90
18884;DHT22;9574;47.282;9.640;2023-06-22T05:23:44;23.10;99.90
18884;DHT22;9574;47.282;9.640;2023-06-22T05:26:12;23.10;99.90
18884;DHT22;9574;47.282;9.640;2023-06-22T05:28:39;22.80;99.90
18884;DHT22;9574;47.282;9.640;2023-06-22T05:31:06;23.00;99.90
18884;DHT22;9574;47.282;9.640;2023-06-22T05:33:33;23.20;99.90
18884;DHT22;9574;47.282;9.640;2023-06-22T05:36:00;23.10;99.90
18884;DHT22;9574;47.282;9.640;2023-06-22T05:38:27;22.90;99.90
18884;DHT22;9574;47.282;9.640;2023-06-22T05:40:54;22.90;99.90
18884;DHT22;9574;47.282;9.640;2023-06-22T05:43:23;22.90;99.90
18884;DHT22;9574;47.282;9.640;2023-06-22T05:45:50;23.20;99.90
18884;DHT22;9574;47.282;9.640;2023-06-22T05:48:17;23.20;99.90
18884;DHT22;9574;47.282;9.640;2023-06-22T05:50:44;23.20;99.90
18884;DHT22;9574;47.282;9.640;2023-06-22T05:53:11;23.00;99.90
18884;DHT22;9574;47.282;9.640;2023-06-22T05:55:38;23.00;99.90
18884;DHT22;9574;47.282;9.640;2023-06-22T05:58:05;23.10;99.90
18884;DHT22;9574;47.282;9.640;2023-06-22T06:00:33;23.30;99.90
18884;DHT22;9574;47.282;9.640;2023-06-22T06:03:00;23.30;99.90
18884;DHT22;9574;47.282;9.640;2023-06-22T06:05:29;23.50;99.90
18884;DHT22;9574;47.282;9.640;2023-06-22T06:07:56;23.30;99.90
18884;DHT22;9574;47.282;9.640;2023-06-22T06:10:23;23.40;99.90
18884;DHT22;9574;47.282;9.640;2023-06-22T06:12:50;23.50;99.90
18884;DHT22;9574;47.282;9.640;2023-06-22T06:15:17;23.70;99.90
18884;DHT22;9574;47.282;9.640;2023-06-22T06:17:50;24.00;99.90
18884;DHT22;9574;47.282;9.640;2023-06-22T06:20:19;24.10;99.90
18884;DHT22;9574;47.282;9.640;2023-06-22T06:22:46;24.30;99.90
18884;DHT22;9574;47.282;9.640;2023-06-22T06:25:13;24.20;99.90
18884;DHT22;9574;47.282;9.640;2023-06-22T06:27:42;24.30;99.90
18884;DHT22;9574;47.282;9.640;2023-06-22T06:30:11;24.50;99.90
18884;DHT22;9574;47.282;9.640;2023-06-22T06:32:38;24.70;99.90
18884;DHT22;9574;47.282;9.640;2023-06-22T06:35:08;24.90;99.90
18884;DHT22;9574;47.282;9.640;2023-06-22T06:37:37;25.00;99.90
18884;DHT22;9574;47.282;9.640;2023-06-22T06:40:05;24.80;99.90
18884;DHT22;9574;47.282;9.640;2023-06-22T06:42:36;24.70;99.90
18884;DHT22;9574;47.282;9.640;2023-06-22T06:45:06;24.80;99.90
18884;DHT22;9574;47.282;9.640;2023-06-22T06:47:33;24.80;99.90
18884;DHT22;9574;47.282;9.640;2023-06-22T06:50:00;24.90;99.90
18884;DHT22;9574;47.282;9.640;2023-06-22T06:52:29;24.90;99.90
18884;DHT22;9574;47.282;9.640;2023-06-22T06:54:56;25.00;99.90
18884;DHT22;9574;47.282;9.640;2023-06-22T06:57:23;25.00;99.90
18884;DHT22;9574;47.282;9.640;2023-06-22T06:59:54;25.10;99.90
18884;DHT22;9574;47.282;9.640;2023-06-22T07:02:22;25.30;99.90
18884;DHT22;9574;47.282;9.640;2023-06-22T07:04:49;25.30;99.90
18884;DHT22;9574;47.282;9.640;2023-06-22T07:07:17;25.40;99.90
18884;DHT22;9574;47.282;9.640;2023-06-22T07:09:45;25.40;99.90
18884;DHT22;9574;47.282;9.640;2023-06-22T07:12:12;25.50;99.90
18884;DHT22;9574;47.282;9.640;2023-06-22T07:14:39;25.50;99.90
18884;DHT22;9574;47.282;9.640;2023-06-22T07:17:06;25.50;99.90
18884;DHT22;9574;47.282;9.640;2023-06-22T07:19:33;25.50;99.90
18884;DHT22;9574;47.282;9.640;2023-06-22T07:22:00;25.60;99.90
18884;DHT22;9574;47.282;9.640;2023-06-22T07:24:27;25.50;99.90
18884;DHT22;9574;47.282;9.640;2023-06-22T07:26:56;25.60;99.90
18884;DHT22;9574;47.282;9.640;2023-06-22T07:29:24;25.60;99.90
18884;DHT22;9574;47.282;9.640;2023-06-22T07:31:52;25.70;99.90
18884;DHT22;9574;47.282;9.640;2023-06-22T07:34:22;25.70;99.90
18884;DHT22;9574;47.282;9.640;2023-06-22T07:36:49;25.80;99.90
18884;DHT22;9574;47.282;9.640;2023-06-22T07:39:16;26.00;99.90
18884;DHT22;9574;47.282;9.640;2023-06-22T07:41:43;26.20;99.90
18884;DHT22;9574;47.282;9.640;2023-06-22T07:44:11;26.30;99.90
18884;DHT22;9574;47.282;9.640;2023-06-22T07:46:38;26.30;99.90
18884;DHT22;9574;47.282;9.640;2023-06-22T07:49:05;26.40;99.90
18884;DHT22;9574;47.282;9.640;2023-06-22T07:51:33;26.40;99.90
18884;DHT22;9574;47.282;9.640;2023-06-22T07:54:00;26.50;99.90
18884;DHT22;9574;47.282;9.640;2023-06-22T07:56:27;26.40;99.90
18884;DHT22;9574;47.282;9.640;2023-06-22T07:58:54;26.40;99.90
18884;DHT22;9574;47.282;9.640;2023-06-22T08:01:25;26.50;99.90
18884;DHT22;9574;47.282;9.640;2023-06-22T08:03:52;26.60;99.90
18884;DHT22;9574;47.282;9.640;2023-06-22T08:06:19;26.60;99.90
18884;DHT22;9574;47.282;9.640;2023-06-22T08:08:46;26.70;99.90
18884;DHT22;9574;47.282;9.640;2023-06-22T08:11:14;26.90;99.90
18884;DHT22;9574;47.282;9.640;2023-06-22T08:13:42;27.00;99.90
18884;DHT22;9574;47.282;9.640;2023-06-22T08:16:09;26.90;99.90
18884;DHT22;9574;47.282;9.640;2023-06-22T08:18:37;26.90;99.90
18884;DHT22;9574;47.282;9.640;2023-06-22T08:21:04;26.90;99.90
18884;DHT22;9574;47.282;9.640;2023-06-22T08:23:31;27.00;99.90
18884;DHT22;9574;47.282;9.640;2023-06-22T08:25:58;27.20;99.90
18884;DHT22;9574;47.282;9.640;2023-06-22T08:28:25;27.30;99.90
18884;DHT22;9574;47.282;9.640;2023-06-22T08:30:52;27.30;99.90
18884;DHT22;9574;47.282;9.640;2023-06-22T08:33:21;27.40;99.90
18884;DHT22;9574;47.282;9.640;2023-06-22T08:35:55;27.50;99.90
18884;DHT22;9574;47.282;9.640;2023-06-22T08:38:22;27.50;99.90
18884;DHT22;9574;47.282;9.640;2023-06-22T08:40:50;27.50;99.90
18884;DHT22;9574;47.282;9.640;2023-06-22T08:43:17;27.60;99.90
18884;DHT22;9574;47.282;9.640;2023-06-22T08:45:44;27.70;99.90
18884;DHT22;9574;47.282;9.640;2023-06-22T08:48:11;27.70;99.90
18884;DHT22;9574;47.282;9.640;2023-06-22T08:50:38;27.50;99.90
18884;DHT22;9574;47.282;9.640;2023-06-22T08:53:07;27.50;99.90
18884;DHT22;9574;47.282;9.640;2023-06-22T08:55:34;27.50;99.90
18884;DHT22;9574;47.282;9.640;2023-06-22T08:58:01;27.50;99.90
18884;DHT22;9574;47.282;9.640;2023-06-22T09:00:29;27.50;99.90
18884;DHT22;9574;47.282;9.640;2023-06-22T09:02:58;27.60;99.90
18884;DHT22;9574;47.282;9.640;2023-06-22T09:05:25;27.40;99.90
18884;DHT22;9574;47.282;9.640;2023-06-22T09:07:52;27.20;99.90
18884;DHT22;9574;47.282;9.640;2023-06-22T09:10:22;27.10;99.90
18884;DHT22;9574;47.282;9.640;2023-06-22T09:12:49;27.00;99.90
18884;DHT22;9574;47.282;9.640;2023-06-22T09:15:16;26.90;99.90
18884;DHT22;9574;47.282;9.640;2023-06-22T09:17:43;26.90;99.90
18884;DHT22;9574;47.282;9.640;2023-06-22T09:20:12;27.00;99.90
18884;DHT22;9574;47.282;9.640;2023-06-22T09:22:39;27.00;99.90
18884;DHT22;9574;47.282;9.640;2023-06-22T09:25:06;27.00;99.90
18884;DHT22;9574;47.282;9.640;2023-06-22T09:27:35;27.00;99.90
18884;DHT22;9574;47.282;9.640;2023-06-22T09:30:02;27.00;99.90
18884;DHT22;9574;47.282;9.640;2023-06-22T09:32:29;27.00;99.90
18884;DHT22;9574;47.282;9.640;2023-06-22T09:34:56;26.90;99.90
18884;DHT22;9574;47.282;9.640;2023-06-22T09:37:25;27.00;99.90
18884;DHT22;9574;47.282;9.640;2023-06-22T09:39:53;27.10;99.90
18884;DHT22;9574;47.282;9.640;2023-06-22T09:42:20;27.10;99.90
18884;DHT22;9574;47.282;9.640;2023-06-22T09:44:48;27.10;99.90
18884;DHT22;9574;47.282;9.640;2023-06-22T09:47:15;27.20;99.90
18884;DHT22;9574;47.282;9.640;2023-06-22T09:49:42;27.30;99.90
18884;DHT22;9574;47.282;9.640;2023-06-22T09:52:09;27.40;99.90
18884;DHT22;9574;47.282;9.640;2023-06-22T09:54:37;27.50;99.90
18884;DHT22;9574;47.282;9.640;2023-06-22T09:57:04;27.40;99.90
18884;DHT22;9574;47.282;9.640;2023-06-22T09:59:31;27.40;99.90
18884;DHT22;9574;47.282;9.640;2023-06-22T10:01:59;27.30;99.90
18884;DHT22;9574;47.282;9.640;2023-06-22T10:04:26;27.30;99.90
18884;DHT22;9574;47.282;9.640;2023-06-22T10:06:53;27.20;99.90
18884;DHT22;9574;47.282;9.640;2023-06-22T10:09:20;27.30;99.90
18884;DHT22;9574;47.282;9.640;2023-06-22T10:11:47;27.30;99.90
18884;DHT22;9574;47.282;9.640;2023-06-22T10:14:14;27.20;99.90
18884;DHT22;9574;47.282;9.640;2023-06-22T10:16:42;27.20;99.90
18884;DHT22;9574;47.282;9.640;2023-06-22T10:19:10;27.40;99.90
18884;DHT22;9574;47.282;9.640;2023-06-22T10:21:37;27.50;99.90
18884;DHT22;9574;47.282;9.640;2023-06-22T10:24:05;27.50;99.90
18884;DHT22;9574;47.282;9.640;2023-06-22T10:26:33;27.50;99.90
18884;DHT22;9574;47.282;9.640;2023-06-22T10:29:00;27.50;99.90
18884;DHT22;9574;47.282;9.640;2023-06-22T10:31:27;27.60;99.90
18884;DHT22;9574;47.282;9.640;2023-06-22T10:33:54;27.60;99.90
18884;DHT22;9574;47.282;9.640;2023-06-22T10:36:23;27.70;99.90
18884;DHT22;9574;47.282;9.640;2023-06-22T10:38:50;27.70;99.90
18884;DHT22;9574;47.282;9.640;2023-06-22T10:41:18;27.80;99.90
18884;DHT22;9574;47.282;9.640;2023-06-22T10:43:45;28.00;99.90
18884;DHT22;9574;47.282;9.640;2023-06-22T10:46:12;28.00;99.90
18884;DHT22;9574;47.282;9.640;2023-06-22T10:48:39;28.10;99.90
18884;DHT22;9574;47.282;9.640;2023-06-22T10:51:06;28.10;99.90
18884;DHT22;9574;47.282;9.640;2023-06-22T10:53:34;28.10;99.90
18884;DHT22;9574;47.282;9.640;2023-06-22T10:56:01;28.20;99.90
18884;DHT22;9574;47.282;9.640;2023-06-22T10:58:28;28.20;99.90
18884;DHT22;9574;47.282;9.640;2023-06-22T11:00:55;28.20;99.90
18884;DHT22;9574;47.282;9.640;2023-06-22T11:03:22;28.30;99.90
18884;DHT22;9574;47.282;9.640;2023-06-22T11:05:49;28.30;99.90
18884;DHT22;9574;47.282;9.640;2023-06-22T11:08:16;28.40;99.90
18884;DHT22;9574;47.282;9.640;2023-06-22T11:10:44;28.40;99.90
18884;DHT22;9574;47.282;9.640;2023-06-22T11:13:11;28.40;99.90
18884;DHT22;9574;47.282;9.640;2023-06-22T11:15:39;28.50;99.90
18884;DHT22;9574;47.282;9.640;2023-06-22T11:18:06;28.40;99.90
18884;DHT22;9574;47.282;9.640;2023-06-22T11:20:33;28.40;99.90
18884;DHT22;9574;47.282;9.640;2023-06-22T11:23:04;28.40;99.90
18884;DHT22;9574;47.282;9.640;2023-06-22T11:25:32;28.50;99.90
18884;DHT22;9574;47.282;9.640;2023-06-22T11:28:02;28.60;99.90
18884;DHT22;9574;47.282;9.640;2023-06-22T11:30:29;28.60;99.90
18884;DHT22;9574;47.282;9.640;2023-06-22T11:32:56;28.70;99.90
18884;DHT22;9574;47.282;9.640;2023-06-22T11:35:24;28.80;99.90
18884;DHT22;9574;47.282;9.640;2023-06-22T11:37:51;28.90;99.90
18884;DHT22;9574;47.282;9.640;2023-06-22T11:40:18;29.00;99.90
18884;DHT22;9574;47.282;9.640;2023-06-22T11:42:45;29.00;99.90
18884;DHT22;9574;47.282;9.640;2023-06-22T11:45:15;28.90;99.90
18884;DHT22;9574;47.282;9.640;2023-06-22T11:47:43;28.80;99.90
18884;DHT22;9574;47.282;9.640;2023-06-22T11:50:10;28.70;99.90
18884;DHT22;9574;47.282;9.640;2023-06-22T11:52:37;28.70;99.90
18884;DHT22;9574;47.282;9.640;2023-06-22T11:55:05;28.60;99.90
18884;DHT22;9574;47.282;9.640;2023-06-22T11:57:33;28.60;99.90
18884;DHT22;9574;47.282;9.640;2023-06-22T12:00:01;28.60;99.90
18884;DHT22;9574;47.282;9.640;2023-06-22T12:02:33;28.60;99.90
18884;DHT22;9574;47.282;9.640;2023-06-22T12:05:00;28.60;99.90
18884;DHT22;9574;47.282;9.640;2023-06-22T12:07:27;28.60;99.90
18884;DHT22;9574;47.282;9.640;2023-06-22T12:09:54;28.60;99.90
18884;DHT22;9574;47.282;9.640;2023-06-22T12:12:21;28.50;99.90
18884;DHT22;9574;47.282;9.640;2023-06-22T12:14:48;28.50;99.90
18884;DHT22;9574;47.282;9.640;2023-06-22T12:17:15;28.40;99.90
18884;DHT22;9574;47.282;9.640;2023-06-22T12:19:44;28.40;99.90
18884;DHT22;9574;47.282;9.640;2023-06-22T12:22:11;28.40;99.90
18884;DHT22;9574;47.282;9.640;2023-06-22T12:24:38;28.30;99.90
18884;DHT22;9574;47.282;9.640;2023-06-22T12:27:05;28.30;99.90
18884;DHT22;9574;47.282;9.640;2023-06-22T12:29:32;28.30;99.90
18884;DHT22;9574;47.282;9.640;2023-06-22T12:31:59;28.40;99.90
18884;DHT22;9574;47.282;9.640;2023-06-22T12:34:25;28.40;99.90
18884;DHT22;9574;47.282;9.640;2023-06-22T12:36:54;28.40;99.90
18884;DHT22;9574;47.282;9.640;2023-06-22T12:39:21;28.30;99.90
18884;DHT22;9574;47.282;9.640;2023-06-22T12:41:48;28.40;99.90
18884;DHT22;9574;47.282;9.640;2023-06-22T12:44:15;28.40;99.90
18884;DHT22;9574;47.282;9.640;2023-06-22T12:46:42;28.50;99.90
18884;DHT22;9574;47.282;9.640;2023-06-22T12:49:09;28.40;99.90
18884;DHT22;9574;47.282;9.640;2023-06-22T12:51:40;28.40;99.90
18884;DHT22;9574;47.282;9.640;2023-06-22T12:54:09;28.50;99.90
18884;DHT22;9574;47.282;9.640;2023-06-22T12:56:37;28.50;99.90
18884;DHT22;9574;47.282;9.640;2023-06-22T12:59:04;28.50;99.90
18884;DHT22;9574;47.282;9.640;2023-06-22T13:01:32;28.60;99.90
18884;DHT22;9574;47.282;9.640;2023-06-22T13:03:59;28.70;99.90
18884;DHT22;9574;47.282;9.640;2023-06-22T13:06:26;28.70;99.90
18884;DHT22;9574;47.282;9.640;2023-06-22T13:08:53;28.90;99.90
18884;DHT22;9574;47.282;9.640;2023-06-22T13:11:21;29.00;99.90
18884;DHT22;9574;47.282;9.640;2023-06-22T13:13:48;29.10;99.90
18884;DHT22;9574;47.282;9.640;2023-06-22T13:16:15;29.20;99.90
18884;DHT22;9574;47.282;9.640;2023-06-22T13:18:42;29.30;99.90
18884;DHT22;9574;47.282;9.640;2023-06-22T13:21:09;29.50;99.90
18884;DHT22;9574;47.282;9.640;2023-06-22T13:23:36;29.60;99.90
18884;DHT22;9574;47.282;9.640;2023-06-22T13:26:03;29.80;99.90
18884;DHT22;9574;47.282;9.640;2023-06-22T13:28:32;29.90;99.90
18884;DHT22;9574;47.282;9.640;2023-06-22T13:31:05;29.90;99.90
18884;DHT22;9574;47.282;9.640;2023-06-22T13:33:37;29.80;99.90
18884;DHT22;9574;47.282;9.640;2023-06-22T13:36:04;29.90;99.90
18884;DHT22;9574;47.282;9.640;2023-06-22T13:38:31;29.90;99.90
18884;DHT22;9574;47.282;9.640;2023-06-22T13:40:58;29.80;99.90
18884;DHT22;9574;47.282;9.640;2023-06-22T13:43:27;29.80;99.90
18884;DHT22;9574;47.282;9.640;2023-06-22T13:45:55;29.90;99.90
18884;DHT22;9574;47.282;9.640;2023-06-22T13:48:22;30.00;99.90
18884;DHT22;9574;47.282;9.640;2023-06-22T13:50:51;30.00;99.90
18884;DHT22;9574;47.282;9.640;2023-06-22T13:53:18;30.20;99.90
18884;DHT22;9574;47.282;9.640;2023-06-22T13:55:45;30.20;99.80
18884;DHT22;9574;47.282;9.640;2023-06-22T13:58:14;30.30;98.10
18884;DHT22;9574;47.282;9.640;2023-06-22T14:00:41;30.30;98.80
18884;DHT22;9574;47.282;9.640;2023-06-22T14:03:09;30.30;99.10
18884;DHT22;9574;47.282;9.640;2023-06-22T14:05:36;30.10;98.60
18884;DHT22;9574;47.282;9.640;2023-06-22T14:08:03;30.10;98.90
18884;DHT22;9574;47.282;9.640;2023-06-22T14:10:30;30.10;98.20
18884;DHT22;9574;47.282;9.640;2023-06-22T14:12:57;30.10;99.20
18884;DHT22;9574;47.282;9.640;2023-06-22T14:15:25;30.00;99.60
18884;DHT22;9574;47.282;9.640;2023-06-22T14:17:52;30.00;99.90
18884;DHT22;9574;47.282;9.640;2023-06-22T14:20:20;30.10;99.00
18884;DHT22;9574;47.282;9.640;2023-06-22T14:22:47;30.10;99.90
18884;DHT22;9574;47.282;9.640;2023-06-22T14:25:14;30.30;99.00
18884;DHT22;9574;47.282;9.640;2023-06-22T14:27:41;30.30;99.90
18884;DHT22;9574;47.282;9.640;2023-06-22T14:30:10;30.30;99.30
18884;DHT22;9574;47.282;9.640;2023-06-22T14:32:37;30.30;99.20
18884;DHT22;9574;47.282;9.640;2023-06-22T14:35:04;30.40;99.90
18884;DHT22;9574;47.282;9.640;2023-06-22T14:37:33;30.30;99.90
18884;DHT22;9574;47.282;9.640;2023-06-22T14:40:00;30.40;99.90
18884;DHT22;9574;47.282;9.640;2023-06-22T14:42:27;30.60;99.90
18884;DHT22;9574;47.282;9.640;2023-06-22T14:44:55;30.70;99.50
18884;DHT22;9574;47.282;9.640;2023-06-22T14:47:22;30.70;99.90
18884;DHT22;9574;47.282;9.640;2023-06-22T14:49:49;30.50;99.30
18884;DHT22;9574;47.282;9.640;2023-06-22T14:52:17;30.40;99.40
18884;DHT22;9574;47.282;9.640;2023-06-22T14:54:45;30.30;99.90
18884;DHT22;9574;47.282;9.640;2023-06-22T14:57:12;30.20;99.90
18884;DHT22;9574;47.282;9.640;2023-06-22T14:59:43;30.10;99.90
18884;DHT22;9574;47.282;9.640;2023-06-22T15:02:10;29.90;99.90
18884;DHT22;9574;47.282;9.640;2023-06-22T15:04:37;29.80;99.90
18884;DHT22;9574;47.282;9.640;2023-06-22T15:07:04;29.70;99.90
18884;DHT22;9574;47.282;9.640;2023-06-22T15:09:32;29.70;99.90
18884;DHT22;9574;47.282;9.640;2023-06-22T15:12:00;29.50;99.90
18884;DHT22;9574;47.282;9.640;2023-06-22T15:14:31;29.40;99.90
18884;DHT22;9574;47.282;9.640;2023-06-22T15:16:58;29.00;99.90
18884;DHT22;9574;47.282;9.640;2023-06-22T15:19:25;28.80;99.90
18884;DHT22;9574;47.282;9.640;2023-06-22T15:21:52;28.90;99.90
18884;DHT22;9574;47.282;9.640;2023-06-22T15:24:19;29.00;99.90
18884;DHT22;9574;47.282;9.640;2023-06-22T15:26:46;29.10;99.90
18884;DHT22;9574;47.282;9.640;2023-06-22T15:29:14;29.20;99.90
18884;DHT22;9574;47.282;9.640;2023-06-22T15:31:41;29.20;99.90
18884;DHT22;9574;47.282;9.640;2023-06-22T15:34:08;29.00;99.90
18884;DHT22;9574;47.282;9.640;2023-06-22T15:36:35;28.80;99.90
18884;DHT22;9574;47.282;9.640;2023-06-22T15:39:02;28.70;99.90
18884;DHT22;9574;47.282;9.640;2023-06-22T15:41:29;28.70;99.90
18884;DHT22;9574;47.282;9.640;2023-06-22T15:43:56;28.60;99.90
18884;DHT22;9574;47.282;9.640;2023-06-22T15:46:24;28.60;99.90
18884;DHT22;9574;47.282;9.640;2023-06-22T15:48:51;28.50;99.90